sensor_id;sensor_type;location;lat;lon;timestamp;pressure;altitude;pressure_sealevel;temperature;humidity
6144;BME280;3103;49.492;8.474;2024-01-16T00:02:26;99935.75;;;1.30;71.07
6144;BME280;3103;49.492;8.474;2024-01-16T00:04:53;99936.56;;;1.30;71.25
6144;BME280;3103;49.492;8.474;2024-01-16T00:07:24;99944.88;;;1.27;71.51
6144;BME280;3103;49.492;8.474;2024-01-16T00:09:52;99952.63;;;1.29;71.57
6144;BME280;3103;49.492;8.474;2024-01-16T00:12:20;99959.91;;;1.27;71.33
6144;BME280;3103;49.492;8.474;2024-01-16T00:14:49;99955.91;;;1.09;72.04
6144;BME280;3103;49.492;8.474;2024-01-16T00:17:16;99952.13;;;1.18;71.41
6144;BME280;3103;49.492;8.474;2024-01-16T00:19:46;99957.16;;;1.35;70.96
6144;BME280;3103;49.492;8.474;2024-01-16T00:22:13;99957.84;;;1.22;71.10
6144;BME280;3103;49.492;8.474;2024-01-16T00:24:40;99962.94;;;1.24;71.27
6144;BME280;3103;49.492;8.474;2024-01-16T00:27:08;99958.53;;;1.09;71.67
6144;BME280;3103;49.492;8.474;2024-01-16T00:29:37;99960.66;;;1.14;71.68
6144;BME280;3103;49.492;8.474;2024-01-16T00:32:07;99964.78;;;0.80;73.21
6144;BME280;3103;49.492;8.474;2024-01-16T00:34:35;99964.03;;;0.86;73.44
6144;BME280;3103;49.492;8.474;2024-01-16T00:37:02;99961.44;;;0.72;73.53
6144;BME280;3103;49.492;8.474;2024-01-16T00:39:28;99961.59;;;0.85;73.39
6144;BME280;3103;49.492;8.474;2024-01-16T00:41:55;99968.19;;;0.96;73.26
6144;BME280;3103;49.492;8.474;2024-01-16T00:44:22;99954.84;;;1.04;73.24
6144;BME280;3103;49.492;8.474;2024-01-16T00:46:50;99962.34;;;1.00;73.28
6144;BME280;3103;49.492;8.474;2024-01-16T00:49:16;99965.53;;;0.96;73.01
6144;BME280;3103;49.492;8.474;2024-01-16T00:51:47;99972.78;;;1.08;72.72
6144;BME280;3103;49.492;8.474;2024-01-16T00:54:14;99974.00;;;1.06;72.99
6144;BME280;3103;49.492;8.474;2024-01-16T00:56:41;99972.78;;;1.08;72.83
6144;BME280;3103;49.492;8.474;2024-01-16T00:59:08;99969.94;;;1.10;72.75
6144;BME280;3103;49.492;8.474;2024-01-16T01:01:38;99973.28;;;1.18;72.93
6144;BME280;3103;49.492;8.474;2024-01-16T01:04:05;99981.88;;;1.21;72.37
6144;BME280;3103;49.492;8.474;2024-01-16T01:06:32;99978.81;;;1.24;72.20
6144;BME280;3103;49.492;8.474;2024-01-16T01:08:59;99981.00;;;1.13;72.06
6144;BME280;3103;49.492;8.474;2024-01-16T01:11:26;99984.56;;;1.06;72.48
6144;BME280;3103;49.492;8.474;2024-01-16T01:13:52;99987.16;;;1.21;72.19
6144;BME280;3103;49.492;8.474;2024-01-16T01:16:20;99995.88;;;1.14;72.25
6144;BME280;3103;49.492;8.474;2024-01-16T01:18:46;99990.75;;;1.13;72.86
6144;BME280;3103;49.492;8.474;2024-01-16T01:21:13;99987.41;;;1.04;72.82
6144;BME280;3103;49.492;8.474;2024-01-16T01:23:40;100003.28;;;1.26;72.36
6144;BME280;3103;49.492;8.474;2024-01-16T01:26:07;100005.75;;;1.27;71.67
6144;BME280;3103;49.492;8.474;2024-01-16T01:28:34;100010.47;;;1.32;71.93
6144;BME280;3103;49.492;8.474;2024-01-16T01:31:01;100012.59;;;1.22;72.15
6144;BME280;3103;49.492;8.474;2024-01-16T01:33:28;100016.00;;;1.37;71.36
6144;BME280;3103;49.492;8.474;2024-01-16T01:35:55;100019.34;;;1.24;71.78
6144;BME280;3103;49.492;8.474;2024-01-16T01:38:22;100016.38;;;1.12;71.95
6144;BME280;3103;49.492;8.474;2024-01-16T01:40:49;100011.09;;;1.12;72.13
6144;BME280;3103;49.492;8.474;2024-01-16T01:43:23;100022.38;;;1.00;73.01
6144;BME280;3103;49.492;8.474;2024-01-16T01:46:20;100018.25;;;0.97;72.81
6144;BME280;3103;49.492;8.474;2024-01-16T01:48:48;100008.56;;;1.04;72.75
6144;BME280;3103;49.492;8.474;2024-01-16T01:51:18;100006.34;;;0.86;73.40
6144;BME280;3103;49.492;8.474;2024-01-16T01:53:48;100008.84;;;0.73;73.62
6144;BME280;3103;49.492;8.474;2024-01-16T01:56:20;100006.91;;;0.82;73.93
6144;BME280;3103;49.492;8.474;2024-01-16T01:58:49;100015.03;;;0.80;74.00
6144;BME280;3103;49.492;8.474;2024-01-16T02:01:21;100016.19;;;0.56;74.76
6144;BME280;3103;49.492;8.474;2024-01-16T02:03:49;100015.72;;;0.53;75.31
6144;BME280;3103;49.492;8.474;2024-01-16T02:06:16;100005.22;;;0.59;75.07
6144;BME280;3103;49.492;8.474;2024-01-16T02:08:44;100018.31;;;0.68;74.79
6144;BME280;3103;49.492;8.474;2024-01-16T02:11:11;100014.91;;;0.88;74.35
6144;BME280;3103;49.492;8.474;2024-01-16T02:13:39;100014.91;;;0.88;74.33
6144;BME280;3103;49.492;8.474;2024-01-16T02:16:20;100011.56;;;0.80;74.77
6144;BME280;3103;49.492;8.474;2024-01-16T02:18:48;100024.25;;;1.06;73.66
6144;BME280;3103;49.492;8.474;2024-01-16T02:21:21;100018.19;;;0.91;73.75
6144;BME280;3103;49.492;8.474;2024-01-16T02:23:48;100021.66;;;1.12;73.31
6144;BME280;3103;49.492;8.474;2024-01-16T02:26:17;100019.22;;;1.11;73.01
6144;BME280;3103;49.492;8.474;2024-01-16T02:28:44;100025.22;;;1.19;72.70
6144;BME280;3103;49.492;8.474;2024-01-16T02:31:11;100025.03;;;1.00;73.66
6144;BME280;3103;49.492;8.474;2024-01-16T02:33:39;100018.88;;;1.14;72.81
6144;BME280;3103;49.492;8.474;2024-01-16T02:36:06;100015.56;;;1.12;72.90
6144;BME280;3103;49.492;8.474;2024-01-16T02:38:32;100016.50;;;1.26;72.48
6144;BME280;3103;49.492;8.474;2024-01-16T02:40:59;100014.00;;;1.17;72.89
6144;BME280;3103;49.492;8.474;2024-01-16T02:43:26;100015.88;;;1.02;73.61
6144;BME280;3103;49.492;8.474;2024-01-16T02:45:54;100010.66;;;1.09;73.38
6144;BME280;3103;49.492;8.474;2024-01-16T02:48:21;100014.25;;;1.01;73.01
6144;BME280;3103;49.492;8.474;2024-01-16T02:50:48;100014.69;;;1.05;72.98
6144;BME280;3103;49.492;8.474;2024-01-16T02:53:15;100011.41;;;1.03;73.17
6144;BME280;3103;49.492;8.474;2024-01-16T02:55:42;100018.44;;;0.96;73.51
6144;BME280;3103;49.492;8.474;2024-01-16T02:58:08;100013.56;;;1.14;72.67
6144;BME280;3103;49.492;8.474;2024-01-16T03:00:36;100010.09;;;1.13;72.83
6144;BME280;3103;49.492;8.474;2024-01-16T03:03:04;100016.38;;;0.91;73.71
6144;BME280;3103;49.492;8.474;2024-01-16T03:05:31;100013.84;;;1.26;72.37
6144;BME280;3103;49.492;8.474;2024-01-16T03:07:58;100027.22;;;1.39;71.67
6144;BME280;3103;49.492;8.474;2024-01-16T03:10:25;100026.09;;;1.27;72.08
6144;BME280;3103;49.492;8.474;2024-01-16T03:12:52;100016.75;;;1.09;73.06
6144;BME280;3103;49.492;8.474;2024-01-16T03:15:20;100031.75;;;1.24;72.28
6144;BME280;3103;49.492;8.474;2024-01-16T03:17:47;100028.59;;;0.92;73.09
6144;BME280;3103;49.492;8.474;2024-01-16T03:20:16;100031.94;;;1.22;73.18
6144;BME280;3103;49.492;8.474;2024-01-16T03:22:43;100031.75;;;1.24;72.26
6144;BME280;3103;49.492;8.474;2024-01-16T03:25:11;100042.63;;;1.29;72.26
6144;BME280;3103;49.492;8.474;2024-01-16T03:27:39;100035.03;;;1.26;72.15
6144;BME280;3103;49.492;8.474;2024-01-16T03:30:06;100033.25;;;1.11;72.68
6144;BME280;3103;49.492;8.474;2024-01-16T03:32:36;100035.09;;;1.11;73.08
6144;BME280;3103;49.492;8.474;2024-01-16T03:35:03;100028.53;;;1.07;73.02
6144;BME280;3103;49.492;8.474;2024-01-16T03:37:31;100033.59;;;1.23;72.56
6144;BME280;3103;49.492;8.474;2024-01-16T03:39:58;100023.69;;;1.10;72.98
6144;BME280;3103;49.492;8.474;2024-01-16T03:42:25;100025.31;;;1.11;72.74
6144;BME280;3103;49.492;8.474;2024-01-16T03:44:52;100033.53;;;1.16;72.90
6144;BME280;3103;49.492;8.474;2024-01-16T03:47:19;100024.50;;;1.11;72.90
6144;BME280;3103;49.492;8.474;2024-01-16T03:49:46;100028.50;;;1.00;73.83
6144;BME280;3103;49.492;8.474;2024-01-16T03:52:13;100017.75;;;0.87;74.63
6144;BME280;3103;49.492;8.474;2024-01-16T03:54:40;100022.28;;;0.93;73.70
6144;BME280;3103;49.492;8.474;2024-01-16T03:57:07;100029.06;;;1.17;73.52
6144;BME280;3103;49.492;8.474;2024-01-16T03:59:36;100028.00;;;1.33;73.56
6144;BME280;3103;49.492;8.474;2024-01-16T04:02:03;100027.47;;;1.65;72.46
6144;BME280;3103;49.492;8.474;2024-01-16T04:04:30;100034.06;;;1.76;71.54
6144;BME280;3103;49.492;8.474;2024-01-16T04:06:57;100031.47;;;1.83;69.84
6144;BME280;3103;49.492;8.474;2024-01-16T04:09:24;100022.66;;;1.75;70.07
6144;BME280;3103;49.492;8.474;2024-01-16T04:11:51;100029.41;;;1.78;70.03
6144;BME280;3103;49.492;8.474;2024-01-16T04:14:17;100029.19;;;1.79;68.62
6144;BME280;3103;49.492;8.474;2024-01-16T04:16:45;100027.84;;;1.62;69.21
6144;BME280;3103;49.492;8.474;2024-01-16T04:19:12;100030.06;;;1.59;69.28
6144;BME280;3103;49.492;8.474;2024-01-16T04:21:39;100031.16;;;1.43;70.00
6144;BME280;3103;49.492;8.474;2024-01-16T04:24:07;100032.91;;;1.36;70.18
6144;BME280;3103;49.492;8.474;2024-01-16T04:26:36;100036.13;;;1.31;72.16
6144;BME280;3103;49.492;8.474;2024-01-16T04:29:03;100042.81;;;1.27;72.85
6144;BME280;3103;49.492;8.474;2024-01-16T04:31:33;100040.75;;;1.08;71.97
6144;BME280;3103;49.492;8.474;2024-01-16T04:34:06;100034.56;;;0.65;73.16
6144;BME280;3103;49.492;8.474;2024-01-16T04:36:33;100029.75;;;0.53;74.67
6144;BME280;3103;49.492;8.474;2024-01-16T04:39:00;100033.69;;;0.94;73.68
6144;BME280;3103;49.492;8.474;2024-01-16T04:41:27;100024.53;;;0.75;73.79
6144;BME280;3103;49.492;8.474;2024-01-16T04:43:54;100032.53;;;0.81;74.15
6144;BME280;3103;49.492;8.474;2024-01-16T04:46:21;100022.22;;;0.86;73.97
6144;BME280;3103;49.492;8.474;2024-01-16T04:48:47;100020.75;;;1.20;73.74
6144;BME280;3103;49.492;8.474;2024-01-16T04:51:14;100028.00;;;1.33;71.96
6144;BME280;3103;49.492;8.474;2024-01-16T04:53:41;100024.03;;;1.43;71.39
6144;BME280;3103;49.492;8.474;2024-01-16T04:56:08;100025.59;;;1.38;71.66
6144;BME280;3103;49.492;8.474;2024-01-16T04:58:35;100018.72;;;1.43;72.24
6144;BME280;3103;49.492;8.474;2024-01-16T05:01:02;100014.81;;;1.39;72.47
6144;BME280;3103;49.492;8.474;2024-01-16T05:03:29;100009.97;;;1.43;71.36
6144;BME280;3103;49.492;8.474;2024-01-16T05:05:56;100012.81;;;1.41;70.85
6144;BME280;3103;49.492;8.474;2024-01-16T05:08:24;100010.91;;;1.35;70.81
6144;BME280;3103;49.492;8.474;2024-01-16T05:10:51;99999.00;;;1.25;70.75
6144;BME280;3103;49.492;8.474;2024-01-16T05:13:18;100001.41;;;1.19;71.67
6144;BME280;3103;49.492;8.474;2024-01-16T05:15:46;100005.91;;;1.26;72.38
6144;BME280;3103;49.492;8.474;2024-01-16T05:18:13;99994.53;;;0.68;73.45
6144;BME280;3103;49.492;8.474;2024-01-16T05:20:40;99991.72;;;0.54;73.98
6144;BME280;3103;49.492;8.474;2024-01-16T05:23:07;99981.47;;;0.81;72.87
6144;BME280;3103;49.492;8.474;2024-01-16T05:25:34;99983.66;;;1.13;72.22
6144;BME280;3103;49.492;8.474;2024-01-16T05:28:01;99974.69;;;0.57;73.18
6144;BME280;3103;49.492;8.474;2024-01-16T05:30:28;99971.41;;;0.55;73.96
6144;BME280;3103;49.492;8.474;2024-01-16T05:32:56;99962.69;;;0.76;74.50
6144;BME280;3103;49.492;8.474;2024-01-16T05:35:30;99973.91;;;0.78;73.47
6144;BME280;3103;49.492;8.474;2024-01-16T05:37:57;99967.69;;;0.85;73.69
6144;BME280;3103;49.492;8.474;2024-01-16T05:40:26;99961.13;;;0.45;74.21
6144;BME280;3103;49.492;8.474;2024-01-16T05:42:53;99967.59;;;0.79;73.29
6144;BME280;3103;49.492;8.474;2024-01-16T05:45:20;99960.34;;;0.66;74.00
6144;BME280;3103;49.492;8.474;2024-01-16T05:47:47;99954.75;;;0.97;73.66
6144;BME280;3103;49.492;8.474;2024-01-16T05:50:14;99966.69;;;1.08;73.40
6144;BME280;3103;49.492;8.474;2024-01-16T05:52:43;99964.09;;;0.93;72.71
6144;BME280;3103;49.492;8.474;2024-01-16T05:55:13;99961.06;;;1.17;72.39
6144;BME280;3103;49.492;8.474;2024-01-16T05:57:42;99961.63;;;1.34;72.38
6144;BME280;3103;49.492;8.474;2024-01-16T06:00:11;99963.16;;;1.22;70.91
6144;BME280;3103;49.492;8.474;2024-01-16T06:02:41;99965.75;;;1.15;72.45
6144;BME280;3103;49.492;8.474;2024-01-16T06:05:09;99974.16;;;1.26;71.99
6144;BME280;3103;49.492;8.474;2024-01-16T06:07:36;99975.16;;;1.46;72.73
6144;BME280;3103;49.492;8.474;2024-01-16T06:10:03;99983.41;;;1.58;71.09
6144;BME280;3103;49.492;8.474;2024-01-16T06:12:32;99985.03;;;1.31;72.07
6144;BME280;3103;49.492;8.474;2024-01-16T06:14:59;99982.22;;;1.39;71.91
6144;BME280;3103;49.492;8.474;2024-01-16T06:17:27;99981.97;;;1.34;71.75
6144;BME280;3103;49.492;8.474;2024-01-16T06:19:54;99981.03;;;1.20;71.94
6144;BME280;3103;49.492;8.474;2024-01-16T06:22:21;99984.91;;;1.17;72.63
6144;BME280;3103;49.492;8.474;2024-01-16T06:24:48;99989.44;;;1.02;71.68
6144;BME280;3103;49.492;8.474;2024-01-16T06:27:15;99974.19;;;1.04;72.45
6144;BME280;3103;49.492;8.474;2024-01-16T06:29:45;99981.94;;;1.27;72.35
6144;BME280;3103;49.492;8.474;2024-01-16T06:32:13;99976.38;;;1.43;70.83
6144;BME280;3103;49.492;8.474;2024-01-16T06:34:40;99978.88;;;1.52;70.74
6144;BME280;3103;49.492;8.474;2024-01-16T06:37:07;99976.28;;;1.58;71.09
6144;BME280;3103;49.492;8.474;2024-01-16T06:39:35;99976.09;;;1.38;71.83
6144;BME280;3103;49.492;8.474;2024-01-16T06:42:02;99976.72;;;1.40;71.63
6144;BME280;3103;49.492;8.474;2024-01-16T06:44:35;99974.94;;;1.41;70.92
6144;BME280;3103;49.492;8.474;2024-01-16T06:47:02;99974.31;;;1.17;71.30
6144;BME280;3103;49.492;8.474;2024-01-16T06:49:29;99973.03;;;1.35;71.39
6144;BME280;3103;49.492;8.474;2024-01-16T06:51:56;99972.59;;;1.31;71.16
6144;BME280;3103;49.492;8.474;2024-01-16T06:54:23;99978.41;;;1.41;70.27
6144;BME280;3103;49.492;8.474;2024-01-16T06:56:50;99965.88;;;1.29;71.04
6144;BME280;3103;49.492;8.474;2024-01-16T06:59:18;99974.53;;;1.23;71.22
6144;BME280;3103;49.492;8.474;2024-01-16T07:01:46;99972.88;;;1.15;71.42
6144;BME280;3103;49.492;8.474;2024-01-16T07:04:13;99980.00;;;1.14;72.42
6144;BME280;3103;49.492;8.474;2024-01-16T07:06:41;99977.00;;;1.24;71.97
6144;BME280;3103;49.492;8.474;2024-01-16T07:09:08;99972.41;;;1.33;71.72
6144;BME280;3103;49.492;8.474;2024-01-16T07:11:38;99973.81;;;0.86;72.29
6144;BME280;3103;49.492;8.474;2024-01-16T07:14:06;99965.22;;;0.84;72.51
6144;BME280;3103;49.492;8.474;2024-01-16T07:16:34;99965.88;;;0.86;73.21
6144;BME280;3103;49.492;8.474;2024-01-16T07:19:02;99971.09;;;1.43;72.16
6144;BME280;3103;49.492;8.474;2024-01-16T07:21:29;99967.19;;;1.18;72.23
6144;BME280;3103;49.492;8.474;2024-01-16T07:23:56;99975.16;;;1.46;71.68
6144;BME280;3103;49.492;8.474;2024-01-16T07:26:23;99980.78;;;1.36;71.36
6144;BME280;3103;49.492;8.474;2024-01-16T07:28:50;99970.84;;;1.17;72.19
6144;BME280;3103;49.492;8.474;2024-01-16T07:31:17;99965.31;;;1.40;71.83
6144;BME280;3103;49.492;8.474;2024-01-16T07:33:44;99973.16;;;1.48;71.25
6144;BME280;3103;49.492;8.474;2024-01-16T07:36:11;99972.78;;;1.08;71.28
6144;BME280;3103;49.492;8.474;2024-01-16T07:38:38;99967.31;;;0.88;72.42
6144;BME280;3103;49.492;8.474;2024-01-16T07:41:05;99971.16;;;0.86;72.59
6144;BME280;3103;49.492;8.474;2024-01-16T07:43:32;99978.72;;;1.32;71.64
6144;BME280;3103;49.492;8.474;2024-01-16T07:45:59;99982.59;;;1.36;71.00
6144;BME280;3103;49.492;8.474;2024-01-16T07:48:26;99978.94;;;1.58;71.97
6144;BME280;3103;49.492;8.474;2024-01-16T07:50:53;99978.16;;;1.64;72.15
6144;BME280;3103;49.492;8.474;2024-01-16T07:53:20;99980.19;;;1.62;71.19
6144;BME280;3103;49.492;8.474;2024-01-16T07:55:47;99989.47;;;1.79;71.44
6144;BME280;3103;49.492;8.474;2024-01-16T07:58:14;99982.22;;;1.39;70.37
6144;BME280;3103;49.492;8.474;2024-01-16T08:00:41;99990.56;;;1.64;70.10
6144;BME280;3103;49.492;8.474;2024-01-16T08:03:09;99989.53;;;1.37;71.56
6144;BME280;3103;49.492;8.474;2024-01-16T08:05:39;99991.47;;;1.49;71.14
6144;BME280;3103;49.492;8.474;2024-01-16T08:08:09;99996.72;;;1.22;71.64
6144;BME280;3103;49.492;8.474;2024-01-16T08:10:36;99992.31;;;1.50;71.13
6144;BME280;3103;49.492;8.474;2024-01-16T08:13:03;99988.84;;;1.49;70.58
6144;BME280;3103;49.492;8.474;2024-01-16T08:15:30;99991.72;;;1.55;70.13
6144;BME280;3103;49.492;8.474;2024-01-16T08:17:58;99987.28;;;0.91;71.07
6144;BME280;3103;49.492;8.474;2024-01-16T08:20:25;99988.78;;;1.43;70.09
6144;BME280;3103;49.492;8.474;2024-01-16T08:22:53;99999.94;;;1.38;69.53
6144;BME280;3103;49.492;8.474;2024-01-16T08:25:20;99995.88;;;1.64;69.90
6144;BME280;3103;49.492;8.474;2024-01-16T08:27:47;99999.69;;;1.12;72.28
6144;BME280;3103;49.492;8.474;2024-01-16T08:30:14;99999.00;;;1.03;71.66
6144;BME280;3103;49.492;8.474;2024-01-16T08:32:41;100001.13;;;1.36;71.44
6144;BME280;3103;49.492;8.474;2024-01-16T08:35:08;100005.03;;;1.61;71.87
6144;BME280;3103;49.492;8.474;2024-01-16T08:37:35;99999.13;;;1.38;70.51
6144;BME280;3103;49.492;8.474;2024-01-16T08:40:04;100007.56;;;1.27;71.64
6144;BME280;3103;49.492;8.474;2024-01-16T08:42:31;100007.16;;;1.72;70.38
6144;BME280;3103;49.492;8.474;2024-01-16T08:44:58;100031.94;;;1.93;70.03
6144;BME280;3103;49.492;8.474;2024-01-16T08:47:26;100025.47;;;1.46;71.09
6144;BME280;3103;49.492;8.474;2024-01-16T08:49:53;100031.38;;;1.48;71.35
6144;BME280;3103;49.492;8.474;2024-01-16T08:52:20;100031.97;;;1.43;70.03
6144;BME280;3103;49.492;8.474;2024-01-16T08:54:49;100040.16;;;1.27;70.22
6144;BME280;3103;49.492;8.474;2024-01-16T08:57:17;100039.44;;;1.40;71.84
6144;BME280;3103;49.492;8.474;2024-01-16T08:59:44;100037.34;;;1.78;72.05
6144;BME280;3103;49.492;8.474;2024-01-16T09:02:13;100038.25;;;1.92;71.17
6144;BME280;3103;49.492;8.474;2024-01-16T09:04:39;100043.25;;;1.80;68.97
6144;BME280;3103;49.492;8.474;2024-01-16T09:07:07;100044.88;;;1.53;70.07
6144;BME280;3103;49.492;8.474;2024-01-16T09:09:34;100043.25;;;1.31;69.37
6144;BME280;3103;49.492;8.474;2024-01-16T09:12:01;100044.94;;;1.17;70.98
6144;BME280;3103;49.492;8.474;2024-01-16T09:14:28;100048.78;;;1.57;70.55
6144;BME280;3103;49.492;8.474;2024-01-16T09:16:55;100055.22;;;1.69;70.05
6144;BME280;3103;49.492;8.474;2024-01-16T09:19:22;100053.66;;;1.82;68.50
6144;BME280;3103;49.492;8.474;2024-01-16T09:21:49;100056.22;;;1.47;68.92
6144;BME280;3103;49.492;8.474;2024-01-16T09:24:16;100050.25;;;1.60;68.46
6144;BME280;3103;49.492;8.474;2024-01-16T09:26:45;100055.38;;;1.68;68.95
6144;BME280;3103;49.492;8.474;2024-01-16T09:29:12;100044.94;;;1.17;69.56
6144;BME280;3103;49.492;8.474;2024-01-16T09:31:41;100058.84;;;1.26;69.97
6144;BME280;3103;49.492;8.474;2024-01-16T09:34:08;100051.56;;;1.49;69.32
6144;BME280;3103;49.492;8.474;2024-01-16T09:36:36;100044.97;;;1.88;69.31
6144;BME280;3103;49.492;8.474;2024-01-16T09:39:05;100055.38;;;1.89;68.64
6144;BME280;3103;49.492;8.474;2024-01-16T09:41:47;100045.25;;;1.99;68.94
6144;BME280;3103;49.492;8.474;2024-01-16T09:44:16;100043.97;;;1.89;68.27
6144;BME280;3103;49.492;8.474;2024-01-16T09:46:44;100036.81;;;1.61;68.51
6144;BME280;3103;49.492;8.474;2024-01-16T09:49:14;100031.94;;;1.65;70.28
6144;BME280;3103;49.492;8.474;2024-01-16T09:51:43;100038.41;;;1.56;69.54
6144;BME280;3103;49.492;8.474;2024-01-16T09:54:10;100030.09;;;1.87;69.47
6144;BME280;3103;49.492;8.474;2024-01-16T09:56:42;100025.22;;;1.90;69.48
6144;BME280;3103;49.492;8.474;2024-01-16T09:59:12;100024.78;;;2.21;69.41
6144;BME280;3103;49.492;8.474;2024-01-16T10:01:42;100044.44;;;1.99;67.00
6144;BME280;3103;49.492;8.474;2024-01-16T10:04:09;100042.84;;;1.76;67.83
6144;BME280;3103;49.492;8.474;2024-01-16T10:06:37;100047.16;;;1.35;69.96
6144;BME280;3103;49.492;8.474;2024-01-16T10:09:04;100038.06;;;1.65;69.27
6144;BME280;3103;49.492;8.474;2024-01-16T10:11:33;100036.31;;;1.30;69.05
6144;BME280;3103;49.492;8.474;2024-01-16T10:14:01;100036.25;;;1.44;69.14
6144;BME280;3103;49.492;8.474;2024-01-16T10:17:03;100034.03;;;1.27;70.03
6144;BME280;3103;49.492;8.474;2024-01-16T10:19:52;100037.59;;;1.83;70.29
6144;BME280;3103;49.492;8.474;2024-01-16T10:22:21;100039.03;;;1.86;67.96
6144;BME280;3103;49.492;8.474;2024-01-16T10:25:12;100043.16;;;1.67;68.73
6144;BME280;3103;49.492;8.474;2024-01-16T10:27:44;100039.91;;;1.43;69.01
6144;BME280;3103;49.492;8.474;2024-01-16T10:30:11;100033.41;;;1.46;69.26
6144;BME280;3103;49.492;8.474;2024-01-16T10:32:41;100046.03;;;1.44;69.56
6144;BME280;3103;49.492;8.474;2024-01-16T10:37:49;100038.63;;;1.61;68.81
6144;BME280;3103;49.492;8.474;2024-01-16T10:40:21;100027.66;;;1.21;69.57
6144;BME280;3103;49.492;8.474;2024-01-16T10:43:03;100031.66;;;1.32;70.06
6144;BME280;3103;49.492;8.474;2024-01-16T10:45:31;100028.09;;;1.67;69.84
6144;BME280;3103;49.492;8.474;2024-01-16T10:48:05;100018.31;;;1.96;69.26
6144;BME280;3103;49.492;8.474;2024-01-16T10:50:37;100017.16;;;2.05;68.37
6144;BME280;3103;49.492;8.474;2024-01-16T10:53:07;100006.31;;;2.34;68.16
6144;BME280;3103;49.492;8.474;2024-01-16T10:58:09;99994.47;;;2.30;66.39
6144;BME280;3103;49.492;8.474;2024-01-16T11:00:41;99986.31;;;2.25;65.98
6144;BME280;3103;49.492;8.474;2024-01-16T11:03:11;99995.88;;;2.26;65.54
6144;BME280;3103;49.492;8.474;2024-01-16T11:05:44;99982.09;;;2.03;65.65
6144;BME280;3103;49.492;8.474;2024-01-16T11:08:12;99981.69;;;2.06;66.40
6144;BME280;3103;49.492;8.474;2024-01-16T11:10:40;99982.53;;;2.48;65.58
6144;BME280;3103;49.492;8.474;2024-01-16T11:13:08;99980.94;;;2.60;65.00
6144;BME280;3103;49.492;8.474;2024-01-16T11:15:37;99977.94;;;2.76;63.65
6144;BME280;3103;49.492;8.474;2024-01-16T11:18:06;99977.66;;;2.58;65.16
6144;BME280;3103;49.492;8.474;2024-01-16T11:20:35;99973.78;;;2.54;64.10
6144;BME280;3103;49.492;8.474;2024-01-16T11:23:23;99964.25;;;2.79;64.14
6144;BME280;3103;49.492;8.474;2024-01-16T11:25:50;99972.53;;;2.50;63.53
6144;BME280;3103;49.492;8.474;2024-01-16T11:28:17;99964.63;;;2.63;64.88
6144;BME280;3103;49.492;8.474;2024-01-16T11:30:45;99955.91;;;2.82;64.47
6144;BME280;3103;49.492;8.474;2024-01-16T11:35:59;99955.44;;;2.65;63.50
6144;BME280;3103;49.492;8.474;2024-01-16T11:38:30;99957.22;;;2.52;64.21
6144;BME280;3103;49.492;8.474;2024-01-16T11:41:04;99953.09;;;2.97;63.77
6144;BME280;3103;49.492;8.474;2024-01-16T11:46:03;99939.75;;;2.71;62.50
6144;BME280;3103;49.492;8.474;2024-01-16T11:48:30;99936.63;;;2.41;63.76
6144;BME280;3103;49.492;8.474;2024-01-16T11:50:58;99937.44;;;2.48;64.35
6144;BME280;3103;49.492;8.474;2024-01-16T11:53:33;99930.13;;;2.63;64.23
6144;BME280;3103;49.492;8.474;2024-01-16T12:01:50;99926.53;;;3.04;62.56
6144;BME280;3103;49.492;8.474;2024-01-16T12:04:21;99921.94;;;2.45;63.45
6144;BME280;3103;49.492;8.474;2024-01-16T12:06:59;99909.28;;;2.40;63.09
6144;BME280;3103;49.492;8.474;2024-01-16T12:09:28;99916.44;;;2.53;63.95
6144;BME280;3103;49.492;8.474;2024-01-16T12:11:59;99909.59;;;2.98;63.67
6144;BME280;3103;49.492;8.474;2024-01-16T12:14:30;99914.31;;;3.03;61.96
6144;BME280;3103;49.492;8.474;2024-01-16T12:17:13;99903.06;;;3.07;60.04
6144;BME280;3103;49.492;8.474;2024-01-16T12:19:40;99895.53;;;3.17;60.28
6144;BME280;3103;49.492;8.474;2024-01-16T12:22:13;99901.63;;;3.05;59.98
6144;BME280;3103;49.492;8.474;2024-01-16T12:24:40;99883.25;;;3.03;60.36
6144;BME280;3103;49.492;8.474;2024-01-16T12:27:08;99893.88;;;2.83;60.64
6144;BME280;3103;49.492;8.474;2024-01-16T12:29:37;99879.41;;;2.99;60.75
6144;BME280;3103;49.492;8.474;2024-01-16T12:32:12;99884.06;;;3.37;60.44
6144;BME280;3103;49.492;8.474;2024-01-16T12:34:47;99880.38;;;3.44;60.14
6144;BME280;3103;49.492;8.474;2024-01-16T12:37:16;99880.69;;;3.94;61.01
6144;BME280;3103;49.492;8.474;2024-01-16T12:39:44;99876.47;;;3.60;58.77
6144;BME280;3103;49.492;8.474;2024-01-16T12:42:11;99873.94;;;3.92;59.22
6144;BME280;3103;49.492;8.474;2024-01-16T12:44:39;99870.16;;;3.61;57.95
6144;BME280;3103;49.492;8.474;2024-01-16T12:47:06;99866.09;;;3.32;58.18
6144;BME280;3103;49.492;8.474;2024-01-16T12:49:41;99872.03;;;3.08;59.76
6144;BME280;3103;49.492;8.474;2024-01-16T12:52:22;99862.59;;;3.51;60.46
6144;BME280;3103;49.492;8.474;2024-01-16T12:54:59;99867.31;;;3.23;58.69
6144;BME280;3103;49.492;8.474;2024-01-16T12:57:30;99858.16;;;3.25;58.75
6144;BME280;3103;49.492;8.474;2024-01-16T12:59:57;99849.16;;;3.07;58.54
6144;BME280;3103;49.492;8.474;2024-01-16T13:02:30;99843.66;;;2.75;58.95
6144;BME280;3103;49.492;8.474;2024-01-16T13:04:58;99844.47;;;2.69;59.57
6144;BME280;3103;49.492;8.474;2024-01-16T13:07:30;99843.66;;;2.75;59.13
6144;BME280;3103;49.492;8.474;2024-01-16T13:10:08;99834.44;;;2.64;58.78
6144;BME280;3103;49.492;8.474;2024-01-16T13:12:35;99831.19;;;2.76;60.22
6144;BME280;3103;49.492;8.474;2024-01-16T13:15:04;99840.38;;;3.19;60.41
6144;BME280;3103;49.492;8.474;2024-01-16T13:17:33;99837.31;;;3.16;59.45
6144;BME280;3103;49.492;8.474;2024-01-16T13:20:01;99832.59;;;3.31;59.09
6144;BME280;3103;49.492;8.474;2024-01-16T13:22:30;99822.81;;;3.32;57.48
6144;BME280;3103;49.492;8.474;2024-01-16T13:25:10;99817.50;;;3.32;57.51
6144;BME280;3103;49.492;8.474;2024-01-16T13:27:38;99808.28;;;3.41;58.36
6144;BME280;3103;49.492;8.474;2024-01-16T13:30:05;99800.31;;;3.34;57.21
6144;BME280;3103;49.492;8.474;2024-01-16T13:32:33;99803.22;;;3.13;57.56
6144;BME280;3103;49.492;8.474;2024-01-16T13:35:04;99798.34;;;2.90;57.98
6144;BME280;3103;49.492;8.474;2024-01-16T13:37:35;99801.38;;;3.07;58.38
6144;BME280;3103;49.492;8.474;2024-01-16T13:40:07;99795.06;;;3.14;56.79
6144;BME280;3103;49.492;8.474;2024-01-16T13:42:46;99787.09;;;3.14;56.05
6144;BME280;3103;49.492;8.474;2024-01-16T13:45:13;99799.16;;;3.04;56.28
6144;BME280;3103;49.492;8.474;2024-01-16T13:47:40;99799.97;;;2.97;57.35
6144;BME280;3103;49.492;8.474;2024-01-16T13:50:08;99794.25;;;3.14;56.07
6144;BME280;3103;49.492;8.474;2024-01-16T13:52:42;99794.69;;;2.97;56.30